createdAt,value
2022-10-19T00:01:16.596Z,60.92
2022-10-19T00:03:46.231Z,60.80
2022-10-19T00:06:25.810Z,61.59
2022-10-19T00:08:54.620Z,61.27
2022-10-19T00:11:23.700Z,61.35
2022-10-19T00:13:51.556Z,60.88
2022-10-19T00:16:19.615Z,62.06
2022-10-19T00:18:47.684Z,62.77
2022-10-19T00:21:20.526Z,62.86
2022-10-19T00:23:49.459Z,63.05
2022-10-19T00:26:17.520Z,62.43
2022-10-19T00:28:46.087Z,61.80
2022-10-19T00:31:16.339Z,62.77
2022-10-19T00:33:46.665Z,62.97
2022-10-19T00:36:22.161Z,63.61
2022-10-19T00:38:50.683Z,64.07
2022-10-19T00:41:20.075Z,62.85
2022-10-19T00:43:54.048Z,62.73
2022-10-19T00:46:22.195Z,63.32
2022-10-19T00:48:51.717Z,63.10
2022-10-19T00:51:22.116Z,63.33
2022-10-19T00:53:50.158Z,63.58
2022-10-19T00:56:18.904Z,63.86
2022-10-19T00:58:47.109Z,64.45
2022-10-19T01:01:18.778Z,64.08
2022-10-19T01:03:47.092Z,65.12
2022-10-19T01:06:18.212Z,65.87
2022-10-19T01:08:47.606Z,65.71
2022-10-19T01:11:37.205Z,64.63
2022-10-19T01:14:19.986Z,65.33
2022-10-19T01:16:54.275Z,65.47
2022-10-19T01:19:45.900Z,66.75
2022-10-19T01:22:27.555Z,66.49
2022-10-19T01:25:07.854Z,66.26
2022-10-19T01:27:49.591Z,66.29
2022-10-19T01:30:30.280Z,66.34
2022-10-19T01:33:12.033Z,67.21
2022-10-19T01:35:47.915Z,67.05
2022-10-19T01:38:25.228Z,67.70
2022-10-19T01:40:59.718Z,67.20
2022-10-19T01:43:38.239Z,67.32
2022-10-19T01:46:13.138Z,67.38
2022-10-19T01:48:44.179Z,68.18
2022-10-19T01:51:17.876Z,68.50
2022-10-19T01:53:55.172Z,68.83
2022-10-19T01:56:27.612Z,69.06
2022-10-19T01:58:59.300Z,69.01
2022-10-19T02:01:32.386Z,69.23
2022-10-19T02:04:02.240Z,70.10
2022-10-19T02:06:31.258Z,70.57
2022-10-19T02:08:59.263Z,69.93
2022-10-19T02:11:27.484Z,71.14
2022-10-19T02:13:59.836Z,71.42
2022-10-19T02:16:33.739Z,72.30
2022-10-19T02:19:04.184Z,72.29
2022-10-19T02:21:33.002Z,72.54
2022-10-19T02:24:01.009Z,72.16
2022-10-19T02:26:29.240Z,72.46
2022-10-19T02:28:58.160Z,73.51
2022-10-19T02:31:26.688Z,73.65
2022-10-19T02:33:56.211Z,74.26
2022-10-19T02:36:24.235Z,74.58
2022-10-19T02:38:52.306Z,73.99
2022-10-19T02:41:29.593Z,74.05
2022-10-19T02:44:02.153Z,74.02
2022-10-19T02:46:36.873Z,74.10
2022-10-19T02:49:08.743Z,74.99
2022-10-19T02:51:38.263Z,75.55
2022-10-19T02:54:08.220Z,76.01
2022-10-19T02:56:36.694Z,76.68
2022-10-19T02:59:05.198Z,76.88
2022-10-19T03:01:33.114Z,77.34
2022-10-19T03:04:01.074Z,77.75
2022-10-19T03:06:30.447Z,77.90
2022-10-19T03:08:58.513Z,77.88
2022-10-19T03:11:26.483Z,77.95
2022-10-19T03:13:54.469Z,78.38
2022-10-19T03:16:22.401Z,78.33
2022-10-19T03:18:51.005Z,78.80
2022-10-19T03:21:20.087Z,78.63
2022-10-19T03:23:49.359Z,79.02
2022-10-19T03:26:17.941Z,78.64
2022-10-19T03:28:46.105Z,78.48
2022-10-19T03:31:14.103Z,78.58
2022-10-19T03:33:42.038Z,78.49
2022-10-19T03:36:23.423Z,77.72
2022-10-19T03:38:53.863Z,78.42
2022-10-19T03:41:22.654Z,79.12
2022-10-19T03:43:51.209Z,78.35
2022-10-19T03:46:19.693Z,78.71
2022-10-19T03:48:47.907Z,78.61
2022-10-19T03:51:18.837Z,79.34
2022-10-19T03:53:47.706Z,79.02
2022-10-19T03:56:18.964Z,78.99
2022-10-19T03:58:48.748Z,79.44
2022-10-19T04:01:18.851Z,80.02
2022-10-19T04:03:46.889Z,79.99
2022-10-19T04:06:21.146Z,80.76
2022-10-19T04:08:50.651Z,80.68
2022-10-19T04:11:23.118Z,80.54
2022-10-19T04:13:52.221Z,81.25
2022-10-19T04:16:21.293Z,80.90
2022-10-19T04:18:49.382Z,81.57
2022-10-19T04:21:23.414Z,82.23
2022-10-19T04:23:52.022Z,82.43
2022-10-19T04:26:21.661Z,83.64
2022-10-19T04:28:49.804Z,84.11
2022-10-19T04:31:17.759Z,85.29
2022-10-19T04:36:14.775Z,85.32
2022-10-19T04:38:42.847Z,86.11
2022-10-19T04:41:15.949Z,86.21
2022-10-19T04:43:46.540Z,86.65
2022-10-19T04:46:15.895Z,87.22
2022-10-19T04:48:47.504Z,87.03
2022-10-19T04:51:23.750Z,86.89
2022-10-19T04:53:55.645Z,86.83
2022-10-19T04:56:30.861Z,86.90
2022-10-19T04:59:01.494Z,86.36
2022-10-19T05:01:32.529Z,86.46
2022-10-19T05:04:02.114Z,86.80
2022-10-19T05:06:31.647Z,86.91
2022-10-19T05:09:00.460Z,87.09
2022-10-19T05:11:29.168Z,87.32
2022-10-19T05:13:57.194Z,86.91
2022-10-19T05:16:26.707Z,87.04
2022-10-19T05:18:58.886Z,87.37
2022-10-19T05:21:28.865Z,87.41
2022-10-19T05:23:58.006Z,87.76
2022-10-19T05:26:28.194Z,87.76
2022-10-19T05:28:59.464Z,88.14
2022-10-19T05:31:30.234Z,88.35
2022-10-19T05:33:58.611Z,88.38
2022-10-19T05:36:28.909Z,88.54
2022-10-19T05:38:58.392Z,88.83
2022-10-19T05:41:27.898Z,88.91
2022-10-19T05:43:57.679Z,88.81
2022-10-19T05:46:29.082Z,88.76
2022-10-19T05:48:57.707Z,88.76
2022-10-19T05:51:27.369Z,89.01
2022-10-19T05:53:56.392Z,88.47
2022-10-19T05:56:26.608Z,88.37
2022-10-19T05:58:56.365Z,88.25
2022-10-19T06:01:24.393Z,88.23
2022-10-19T06:03:55.632Z,87.81
2022-10-19T06:06:24.184Z,88.01
2022-10-19T06:08:53.497Z,87.37
2022-10-19T06:11:23.910Z,87.03
2022-10-19T06:13:54.737Z,87.00
2022-10-19T06:16:24.020Z,86.83
2022-10-19T06:18:53.525Z,86.37
2022-10-19T06:21:23.863Z,86.19
2022-10-19T06:23:52.032Z,85.60
2022-10-19T06:26:20.855Z,85.46
2022-10-19T06:28:49.323Z,84.98
2022-10-19T06:31:18.151Z,84.64
2022-10-19T06:33:49.243Z,84.43
2022-10-19T06:36:21.887Z,83.95
2022-10-19T06:38:50.404Z,83.48
2022-10-19T06:41:18.993Z,83.71
2022-10-19T06:43:50.947Z,82.88
2022-10-19T06:46:23.136Z,82.54
2022-10-19T06:48:52.545Z,81.32
2022-10-19T06:51:22.702Z,81.41
2022-10-19T06:53:54.314Z,80.40
2022-10-19T06:56:25.573Z,79.64
2022-10-19T06:58:53.507Z,79.50
2022-10-19T07:01:21.605Z,78.99
2022-10-19T07:03:51.914Z,78.10
2022-10-19T07:06:21.765Z,77.75
2022-10-19T07:08:50.020Z,77.37
2022-10-19T07:11:20.485Z,76.53
2022-10-19T07:13:48.420Z,75.74
2022-10-19T07:16:21.108Z,75.08
2022-10-19T07:18:50.694Z,74.35
2022-10-19T07:21:18.808Z,74.01
2022-10-19T07:23:48.647Z,73.73
2022-10-19T07:26:21.049Z,72.35
2022-10-19T07:28:50.097Z,72.13
2022-10-19T07:31:20.718Z,72.94
2022-10-19T07:33:49.049Z,73.25
2022-10-19T07:36:16.964Z,73.47
2022-10-19T07:38:44.923Z,72.06
2022-10-19T07:41:15.979Z,71.06
2022-10-19T07:43:45.670Z,70.07
2022-10-19T07:46:15.553Z,69.21
2022-10-19T07:48:44.231Z,67.63
2022-10-19T07:51:13.802Z,66.60
2022-10-19T07:53:42.097Z,66.00
2022-10-19T07:56:12.012Z,64.94
2022-10-19T07:58:41.916Z,63.52
2022-10-19T08:01:11.358Z,62.36
2022-10-19T08:06:28.156Z,61.57
2022-10-19T08:08:56.912Z,60.87
2022-10-19T08:11:27.410Z,60.61
2022-10-19T08:13:58.636Z,59.80
2022-10-19T08:16:29.177Z,59.71
2022-10-19T08:18:59.477Z,58.70
2022-10-19T08:21:28.141Z,57.92
2022-10-19T08:23:56.137Z,57.39
2022-10-19T08:26:24.902Z,57.20
2022-10-19T08:28:52.918Z,56.98
2022-10-19T08:31:23.478Z,56.32
2022-10-19T08:33:52.148Z,55.11
2022-10-19T08:36:21.401Z,54.17
2022-10-19T08:38:50.581Z,53.84
2022-10-19T08:41:34.538Z,52.76
2022-10-19T08:44:27.612Z,51.63
2022-10-19T08:47:07.658Z,51.10
2022-10-19T08:49:36.769Z,50.10
2022-10-19T08:52:12.572Z,49.49
2022-10-19T08:54:48.060Z,48.06
2022-10-19T08:57:26.712Z,47.31
2022-10-19T09:00:02.616Z,47.71
2022-10-19T09:02:44.977Z,47.45
2022-10-19T09:05:22.679Z,46.61
2022-10-19T09:07:54.781Z,47.89
2022-10-19T09:10:26.329Z,46.15
2022-10-19T09:12:59.868Z,45.52
2022-10-19T09:15:30.015Z,44.49
2022-10-19T09:17:59.384Z,45.09
2022-10-19T09:20:33.188Z,43.29
2022-10-19T09:23:09.803Z,42.59
2022-10-19T09:25:40.872Z,42.85
2022-10-19T09:28:20.524Z,41.47
2022-10-19T09:30:52.913Z,41.51
2022-10-19T09:33:29.212Z,39.84
2022-10-19T09:35:59.148Z,40.12
2022-10-19T09:38:29.610Z,39.57
2022-10-19T09:40:58.261Z,39.76
2022-10-19T09:43:28.119Z,39.92
2022-10-19T09:46:09.652Z,39.97
2022-10-19T09:48:48.617Z,38.35
2022-10-19T09:51:18.279Z,38.40
2022-10-19T09:53:46.987Z,37.87
2022-10-19T09:56:19.466Z,37.23
2022-10-19T09:58:49.400Z,37.18
2022-10-19T10:01:41.486Z,36.57
2022-10-19T10:04:16.907Z,36.63
2022-10-19T10:06:46.101Z,36.49
2022-10-19T10:09:18.045Z,34.75
2022-10-19T10:11:49.145Z,33.98
2022-10-19T10:14:22.237Z,33.68
2022-10-19T10:16:56.604Z,33.44
2022-10-19T10:19:30.245Z,32.68
2022-10-19T10:22:00.059Z,32.92
2022-10-19T10:24:30.068Z,33.19
2022-10-19T10:26:59.930Z,32.74
2022-10-19T10:29:32.552Z,33.05
2022-10-19T10:32:06.165Z,33.39
2022-10-19T10:34:49.808Z,32.08
2022-10-19T10:37:23.036Z,31.82
2022-10-19T10:39:53.948Z,31.87
2022-10-19T10:42:29.434Z,31.14
2022-10-19T10:44:58.229Z,30.99
2022-10-19T10:47:29.269Z,30.95
2022-10-19T10:50:02.799Z,30.14
2022-10-19T10:52:32.038Z,29.38
2022-10-19T10:55:02.862Z,29.08
2022-10-19T10:57:36.696Z,28.58
2022-10-19T11:00:11.326Z,29.22
2022-10-19T11:02:47.464Z,29.05
2022-10-19T11:05:23.797Z,28.24
2022-10-19T11:07:55.885Z,28.39
2022-10-19T11:10:29.388Z,28.30
2022-10-19T11:13:04.349Z,28.22
2022-10-19T11:15:38.133Z,28.22
2022-10-19T11:18:16.987Z,28.15
2022-10-19T11:20:54.380Z,28.27
2022-10-19T11:23:37.506Z,27.86
2022-10-19T11:26:18.805Z,27.52
2022-10-19T11:29:03.801Z,27.64
2022-10-19T11:31:41.473Z,27.71
2022-10-19T11:34:28.145Z,28.43
2022-10-19T11:37:03.890Z,28.76
2022-10-19T11:39:43.147Z,30.16
2022-10-19T11:42:20.325Z,30.91
2022-10-19T11:45:04.494Z,32.07
2022-10-19T11:47:51.519Z,33.08
2022-10-19T11:50:32.980Z,33.88
2022-10-19T11:53:11.148Z,34.98
2022-10-19T11:55:47.104Z,35.91
2022-10-19T11:58:36.694Z,36.79
2022-10-19T12:01:18.507Z,37.43
2022-10-19T12:04:08.030Z,38.52
2022-10-19T12:06:55.585Z,38.58
2022-10-19T12:09:57.559Z,38.56
2022-10-19T12:12:33.551Z,39.69
2022-10-19T12:15:18.011Z,41.14
2022-10-19T12:17:49.345Z,42.69
2022-10-19T12:20:25.800Z,43.52
2022-10-19T12:22:54.055Z,44.14
2022-10-19T12:25:23.908Z,44.49
2022-10-19T12:27:51.969Z,45.79
2022-10-19T12:30:22.420Z,46.96
2022-10-19T12:33:08.782Z,47.60
2022-10-19T12:35:50.882Z,47.87
2022-10-19T12:38:24.870Z,47.08
2022-10-19T12:41:01.889Z,46.80
2022-10-19T12:43:38.879Z,46.85
2022-10-19T12:46:17.945Z,46.21
2022-10-19T12:48:45.904Z,45.81
2022-10-19T12:51:18.339Z,45.62
2022-10-19T12:53:49.965Z,45.87
2022-10-19T12:56:24.045Z,46.05
2022-10-19T12:58:56.205Z,46.39
2022-10-19T13:01:28.012Z,46.79
2022-10-19T13:04:10.573Z,46.96
2022-10-19T13:06:42.307Z,47.64
2022-10-19T13:09:22.324Z,48.45
2022-10-19T13:12:38.878Z,49.96
2022-10-19T13:15:57.107Z,52.08
2022-10-19T13:19:08.401Z,52.54
2022-10-19T13:21:49.558Z,52.72
2022-10-19T13:24:29.877Z,53.06
2022-10-19T13:27:26.146Z,53.45
2022-10-19T13:29:54.141Z,53.04
2022-10-19T13:32:44.171Z,53.26
2022-10-19T13:35:31.769Z,53.52
2022-10-19T13:38:28.526Z,54.48
2022-10-19T13:41:03.244Z,55.03
2022-10-19T13:43:34.065Z,55.21
2022-10-19T13:46:09.646Z,55.75
2022-10-19T13:48:50.512Z,55.94
2022-10-19T13:51:29.146Z,56.26
2022-10-19T13:54:01.919Z,56.42
2022-10-19T13:56:46.400Z,55.91
2022-10-19T13:59:47.011Z,55.15
2022-10-19T14:02:45.975Z,54.23
2022-10-19T14:05:48.533Z,53.25
2022-10-19T14:08:33.177Z,52.88
2022-10-19T14:11:05.932Z,51.79
2022-10-19T14:13:33.889Z,51.16
2022-10-19T14:16:03.094Z,50.42
2022-10-19T14:18:32.658Z,50.46
2022-10-19T14:21:02.099Z,50.56
2022-10-19T14:23:31.712Z,50.02
2022-10-19T14:26:03.428Z,49.72
2022-10-19T14:28:32.557Z,49.41
2022-10-19T14:31:02.389Z,49.20
2022-10-19T14:33:32.841Z,49.19
2022-10-19T14:36:01.243Z,48.86
2022-10-19T14:38:35.314Z,48.74
2022-10-19T14:41:06.968Z,48.19
2022-10-19T14:43:35.979Z,48.55
2022-10-19T14:46:05.777Z,48.99
2022-10-19T14:48:34.794Z,49.68
2022-10-19T14:51:06.118Z,49.48
2022-10-19T14:53:41.087Z,49.72
2022-10-19T14:56:15.123Z,50.50
2022-10-19T14:58:53.545Z,51.03
2022-10-19T15:01:22.193Z,51.29
2022-10-19T15:03:50.994Z,52.05
2022-10-19T15:06:22.770Z,52.23
2022-10-19T15:11:31.503Z,53.28
2022-10-19T15:14:03.839Z,53.86
2022-10-19T15:16:35.329Z,54.54
2022-10-19T15:19:07.499Z,55.21
2022-10-19T15:21:35.573Z,55.48
2022-10-19T15:24:22.717Z,56.15
2022-10-19T15:27:08.749Z,56.47
2022-10-19T15:29:38.034Z,56.32
2022-10-19T15:32:31.913Z,56.95
2022-10-19T15:35:00.089Z,56.90
2022-10-19T15:37:28.176Z,57.72
2022-10-19T15:39:56.160Z,57.88
2022-10-19T15:42:37.926Z,58.06
2022-10-19T15:45:27.111Z,57.23
2022-10-19T15:48:24.990Z,56.40
2022-10-19T15:50:53.673Z,56.45
2022-10-19T15:53:22.365Z,55.58
2022-10-19T15:55:50.496Z,54.27
2022-10-19T15:58:21.193Z,53.44
2022-10-19T16:00:49.257Z,52.68
2022-10-19T16:03:17.337Z,51.76
2022-10-19T16:05:45.526Z,51.58
2022-10-19T16:08:13.497Z,50.89
2022-10-19T16:10:41.411Z,50.60
2022-10-19T16:13:09.302Z,49.91
2022-10-19T16:15:38.591Z,49.08
2022-10-19T16:18:06.952Z,49.11
2022-10-19T16:20:35.047Z,48.53
2022-10-19T16:23:03.208Z,48.96
2022-10-19T16:25:31.133Z,49.05
2022-10-19T16:27:59.103Z,48.96
2022-10-19T16:30:27.124Z,48.32
2022-10-19T16:32:56.470Z,48.28
2022-10-19T16:35:25.334Z,48.64
2022-10-19T16:37:53.036Z,49.04
2022-10-19T16:40:21.079Z,48.44
2022-10-19T16:42:49.149Z,48.99
2022-10-19T16:45:17.625Z,48.42
2022-10-19T16:47:45.781Z,49.16
2022-10-19T16:50:15.234Z,49.00
2022-10-19T16:52:43.375Z,48.78
2022-10-19T16:55:11.605Z,49.25
2022-10-19T16:57:39.721Z,49.26
2022-10-19T17:00:09.495Z,49.72
2022-10-19T17:02:41.925Z,49.56
2022-10-19T17:05:12.369Z,49.71
2022-10-19T17:07:47.674Z,50.05
2022-10-19T17:10:21.258Z,50.37
2022-10-19T17:12:49.238Z,50.70
2022-10-19T17:15:42.111Z,51.17
2022-10-19T17:18:11.241Z,51.81
2022-10-19T17:20:39.413Z,51.63
2022-10-19T17:23:08.710Z,51.49
2022-10-19T17:25:36.684Z,51.82
2022-10-19T17:28:04.700Z,51.92
2022-10-19T17:30:32.653Z,52.79
2022-10-19T17:33:00.598Z,52.82
2022-10-19T17:35:28.555Z,52.50
2022-10-19T17:37:56.461Z,52.76
2022-10-19T17:40:25.773Z,52.90
2022-10-19T17:42:53.740Z,53.08
2022-10-19T17:45:21.698Z,53.16
2022-10-19T17:47:49.603Z,53.72
2022-10-19T17:50:17.795Z,53.77
2022-10-19T17:52:45.751Z,53.67
2022-10-19T17:55:13.800Z,53.79
2022-10-19T17:57:43.198Z,54.19
2022-10-19T18:00:12.016Z,54.51
2022-10-19T18:02:45.454Z,54.57
2022-10-19T18:05:13.590Z,54.54
2022-10-19T18:07:44.271Z,54.92
2022-10-19T18:10:12.427Z,54.93
2022-10-19T18:12:40.702Z,55.23
2022-10-19T18:15:10.571Z,55.54
2022-10-19T18:17:38.910Z,55.29
2022-10-19T18:20:08.335Z,55.98
2022-10-19T18:22:36.347Z,56.00
2022-10-19T18:25:04.355Z,55.88
2022-10-19T18:27:32.538Z,56.43
2022-10-19T18:30:00.722Z,56.36
2022-10-19T18:32:29.997Z,56.92
2022-10-19T18:34:57.918Z,56.57
2022-10-19T18:37:25.915Z,56.62
2022-10-19T18:39:53.912Z,56.80
2022-10-19T18:42:21.824Z,55.79
2022-10-19T18:44:49.793Z,55.81
2022-10-19T18:47:17.765Z,55.52
2022-10-19T18:49:47.085Z,55.65
2022-10-19T18:52:15.047Z,55.38
2022-10-19T18:54:43.035Z,55.58
2022-10-19T18:57:10.936Z,55.12
2022-10-19T18:59:39.045Z,55.30
2022-10-19T19:02:13.656Z,55.50
2022-10-19T19:04:52.179Z,55.27
2022-10-19T19:07:20.142Z,55.44
2022-10-19T19:09:48.125Z,55.53
2022-10-19T19:12:16.065Z,55.48
2022-10-19T19:14:45.182Z,55.49
2022-10-19T19:17:13.182Z,55.64
2022-10-19T19:19:43.886Z,55.53
2022-10-19T19:22:13.271Z,56.20
2022-10-19T19:24:43.047Z,56.07
2022-10-19T19:27:10.973Z,56.55
2022-10-19T19:29:38.862Z,56.12
2022-10-19T19:32:09.947Z,56.18
2022-10-19T19:34:37.915Z,56.19
2022-10-19T19:37:08.872Z,56.41
2022-10-19T19:39:40.170Z,56.92
2022-10-19T19:42:08.329Z,57.06
2022-10-19T19:44:36.250Z,57.39
2022-10-19T19:47:04.363Z,57.19
2022-10-19T19:49:32.422Z,57.32
2022-10-19T19:52:00.658Z,57.35
2022-10-19T19:54:28.678Z,57.87
2022-10-19T19:56:57.961Z,57.70
2022-10-19T19:59:25.981Z,57.92
2022-10-19T20:01:53.988Z,58.32
2022-10-19T20:04:22.030Z,58.25
2022-10-19T20:06:50.003Z,58.46
2022-10-19T20:09:17.943Z,58.17
2022-10-19T20:11:45.928Z,58.61
2022-10-19T20:14:15.290Z,58.38
2022-10-19T20:16:43.262Z,58.59
2022-10-19T20:19:13.456Z,58.88
2022-10-19T20:21:42.398Z,59.30
2022-10-19T20:24:11.656Z,59.00
2022-10-19T20:26:40.041Z,59.43
2022-10-19T20:29:08.143Z,59.25
2022-10-19T20:31:40.304Z,59.18
2022-10-19T20:34:10.811Z,58.98
2022-10-19T20:36:38.798Z,58.73
2022-10-19T20:39:06.974Z,59.23
2022-10-19T20:41:35.499Z,59.42
2022-10-19T20:44:03.493Z,59.48
2022-10-19T20:46:32.166Z,59.95
2022-10-19T20:49:02.934Z,59.94
2022-10-19T20:51:32.835Z,59.78
2022-10-19T20:54:01.966Z,59.68
2022-10-19T20:56:32.663Z,59.69
2022-10-19T21:01:32.889Z,59.90
2022-10-19T21:04:04.604Z,59.97
2022-10-19T21:06:35.554Z,59.75
2022-10-19T21:09:03.824Z,59.80
2022-10-19T21:11:33.492Z,59.74
2022-10-19T21:14:03.297Z,60.08
2022-10-19T21:16:33.663Z,59.69
2022-10-19T21:19:04.733Z,59.94
2022-10-19T21:21:34.941Z,60.09
2022-10-19T21:24:05.819Z,60.29
2022-10-19T21:26:35.683Z,60.24
2022-10-19T21:29:05.461Z,60.11
2022-10-19T21:31:33.412Z,60.25
2022-10-19T21:34:05.676Z,60.45
2022-10-19T21:36:33.911Z,60.74
2022-10-19T21:39:02.375Z,60.54
2022-10-19T21:41:30.940Z,60.92
2022-10-19T21:43:59.216Z,60.69
2022-10-19T21:46:27.668Z,60.88
2022-10-19T21:48:56.367Z,60.61
2022-10-19T21:51:34.308Z,60.69
2022-10-19T21:54:02.594Z,60.76
2022-10-19T21:56:30.601Z,60.97
2022-10-19T21:58:58.705Z,60.92
2022-10-19T22:01:29.494Z,60.89
2022-10-19T22:03:58.140Z,60.88
2022-10-19T22:06:27.772Z,60.78
2022-10-19T22:08:56.518Z,61.26
2022-10-19T22:11:28.009Z,61.74
2022-10-19T22:13:56.890Z,62.41
2022-10-19T22:16:25.973Z,62.29
2022-10-19T22:18:53.938Z,62.55
2022-10-19T22:21:24.508Z,62.86
2022-10-19T22:23:56.458Z,63.03
2022-10-19T22:26:26.439Z,63.32
2022-10-19T22:28:56.615Z,63.50
2022-10-19T22:31:25.262Z,63.89
2022-10-19T22:33:53.247Z,63.54
2022-10-19T22:36:21.407Z,63.66
2022-10-19T22:38:49.400Z,64.16
2022-10-19T22:41:18.751Z,64.00
2022-10-19T22:43:46.733Z,64.65
2022-10-19T22:46:14.745Z,64.39
2022-10-19T22:48:42.748Z,64.95
2022-10-19T22:51:10.760Z,65.79
2022-10-19T22:53:39.190Z,66.36
2022-10-19T22:56:07.666Z,66.91
2022-10-19T22:58:37.019Z,67.22
2022-10-19T23:01:08.058Z,67.73
2022-10-19T23:03:36.197Z,67.58
2022-10-19T23:06:04.717Z,67.92
2022-10-19T23:08:32.767Z,66.94
2022-10-19T23:11:00.733Z,66.78
2022-10-19T23:13:29.043Z,66.58
2022-10-19T23:15:58.460Z,66.42
2022-10-19T23:18:26.609Z,66.93
2022-10-19T23:20:55.598Z,67.09
2022-10-19T23:23:23.829Z,67.32
2022-10-19T23:25:59.503Z,65.75
2022-10-19T23:28:27.912Z,66.61
2022-10-19T23:30:58.003Z,67.42
2022-10-19T23:33:27.424Z,66.85
2022-10-19T23:35:55.391Z,65.92
2022-10-19T23:38:23.343Z,66.39
2022-10-19T23:40:51.558Z,66.63
2022-10-19T23:43:19.521Z,66.62
2022-10-19T23:45:47.516Z,67.42
2022-10-19T23:48:15.461Z,67.28
2022-10-19T23:50:44.800Z,67.37
2022-10-19T23:53:12.973Z,67.99
2022-10-19T23:55:40.915Z,67.73
2022-10-19T23:58:11.807Z,67.60
